Time,TemperatureF,DewpointF,PressureIn,WindDirection,WindDirectionDegrees,WindSpeedMPH,WindSpeedGustMPH,Humidity,HourlyPrecipIn,Conditions,Clouds,dailyrainin,SoftwareType,DateUTC
2013-06-18 00:11:00,59.5,57.0,29.92,East,95,1.0,2.0,91,0.00,,,0.00,weatherlink.com 1.10,2013-06-18 04:11:00,
2013-06-18 00:26:00,59.0,56.0,29.93,North,349,2.0,4.0,90,0.00,,,0.00,weatherlink.com 1.10,2013-06-18 04:26:00,
2013-06-18 00:41:00,58.7,56.0,29.91,ENE,75,1.0,3.0,91,0.00,,,0.00,weatherlink.com 1.10,2013-06-18 04:41:00,
2013-06-18 00:56:00,58.0,56.0,29.89,North,8,2.0,6.0,92,0.00,,,0.00,weatherlink.com 1.10,2013-06-18 04:56:00,
2013-06-18 01:11:00,57.6,56.0,29.89,NE,45,1.0,4.0,93,0.00,,,0.00,weatherlink.com 1.10,2013-06-18 05:11:00,
2013-06-18 01:26:00,56.8,55.0,29.89,NE,41,0.0,4.0,92,0.00,,,0.00,weatherlink.com 1.10,2013-06-18 05:26:00,
2013-06-18 01:41:00,56.2,54.0,29.89,ESE,104,4.0,4.0,93,0.00,,,0.00,weatherlink.com 1.10,2013-06-18 05:41:00,
2013-06-18 01:56:00,55.8,54.0,29.90,East,90,0.0,1.0,94,0.00,,,0.00,weatherlink.com 1.10,2013-06-18 05:56:00,
2013-06-18 02:11:00,55.4,54.0,29.91,North,352,0.0,1.0,94,0.00,,,0.00,weatherlink.com 1.10,2013-06-18 06:11:00,
2013-06-18 02:26:00,55.0,54.0,29.91,North,359,0.0,0.0,95,0.00,,,0.00,weatherlink.com 1.10,2013-06-18 06:26:00,
2013-06-18 02:41:00,54.7,53.0,29.91,North,360,0.0,1.0,95,0.00,,,0.00,weatherlink.com 1.10,2013-06-18 06:41:00,
2013-06-18 02:56:00,54.6,54.0,29.90,NNW,345,0.0,2.0,96,0.00,,,0.00,weatherlink.com 1.10,2013-06-18 06:56:00,
2013-06-18 03:11:00,54.2,53.0,29.90,NNW,342,1.0,1.0,96,0.00,,,0.00,weatherlink.com 1.10,2013-06-18 07:11:00,
2013-06-18 03:26:00,53.9,53.0,29.91,North,6,0.0,2.0,95,0.00,,,0.00,weatherlink.com 1.10,2013-06-18 07:26:00,
2013-06-18 03:41:00,53.6,52.0,29.91,NW,323,0.0,3.0,95,0.00,,,0.00,weatherlink.com 1.10,2013-06-18 07:41:00,
2013-06-18 03:56:00,53.2,52.0,29.91,NNE,17,0.0,1.0,95,0.00,,,0.00,weatherlink.com 1.10,2013-06-18 07:56:00,
2013-06-18 04:11:00,52.9,52.0,29.92,NE,37,0.0,1.0,95,0.00,,,0.00,weatherlink.com 1.10,2013-06-18 08:11:00,
2013-06-18 04:26:00,52.6,51.0,29.92,North,3,0.0,1.0,95,0.00,,,0.00,weatherlink.com 1.10,2013-06-18 08:26:00,
2013-06-18 04:41:00,52.4,51.0,29.92,ESE,110,1.0,2.0,95,0.00,,,0.00,weatherlink.com 1.10,2013-06-18 08:41:00,
2013-06-18 04:56:00,52.3,51.0,29.92,NE,39,2.0,4.0,95,0.00,,,0.00,weatherlink.com 1.10,2013-06-18 08:56:00,
2013-06-18 05:11:00,52.1,51.0,29.93,North,8,0.0,1.0,95,0.00,,,0.00,weatherlink.com 1.10,2013-06-18 09:11:00,
2013-06-18 05:26:00,52.0,51.0,29.93,ENE,60,1.0,4.0,95,0.00,,,0.00,weatherlink.com 1.10,2013-06-18 09:26:00,
2013-06-18 05:41:00,52.0,51.0,29.94,NNE,18,0.0,4.0,95,0.00,,,0.00,weatherlink.com 1.10,2013-06-18 09:41:00,
2013-06-18 05:56:00,52.0,51.0,29.94,NE,50,1.0,3.0,95,0.00,,,0.00,weatherlink.com 1.10,2013-06-18 09:56:00,
2013-06-18 06:12:00,52.0,50.0,29.95,North,349,0.0,4.0,94,0.00,,,0.00,weatherlink.com 1.10,2013-06-18 10:12:00,
2013-06-18 06:27:00,52.2,51.0,29.95,NNE,13,1.0,8.0,94,0.00,,,0.00,weatherlink.com 1.10,2013-06-18 10:27:00,
2013-06-18 06:42:00,52.5,51.0,29.95,ESE,117,1.0,3.0,93,0.00,,,0.00,weatherlink.com 1.10,2013-06-18 10:42:00,
2013-06-18 06:57:00,52.9,51.0,29.95,SSE,163,0.0,5.0,92,0.00,,,0.00,weatherlink.com 1.10,2013-06-18 10:57:00,
2013-06-18 07:12:00,53.5,51.0,29.96,East,101,2.0,4.0,91,0.00,,,0.00,weatherlink.com 1.10,2013-06-18 11:12:00,
2013-06-18 07:27:00,54.1,51.0,29.97,North,357,1.0,5.0,89,0.00,,,0.00,weatherlink.com 1.10,2013-06-18 11:27:00,
2013-06-18 07:42:00,55.1,51.0,29.96,NE,48,4.0,4.0,87,0.00,,,0.00,weatherlink.com 1.10,2013-06-18 11:42:00,
2013-06-18 07:57:00,56.5,52.0,29.97,NNE,13,1.0,6.0,85,0.00,,,0.00,weatherlink.com 1.10,2013-06-18 11:57:00,
2013-06-18 08:12:00,57.6,52.0,29.97,North,359,2.0,5.0,82,0.00,,,0.00,weatherlink.com 1.10,2013-06-18 12:12:00,
2013-06-18 08:27:00,58.7,53.0,29.97,East,91,1.0,5.0,80,0.00,,,0.00,weatherlink.com 1.10,2013-06-18 12:27:00,
2013-06-18 08:42:00,59.0,52.0,29.97,ESE,108,1.0,7.0,78,0.00,,,0.00,weatherlink.com 1.10,2013-06-18 12:42:00,
2013-06-18 08:57:00,59.5,53.0,29.98,ESE,122,1.0,8.0,78,0.00,,,0.00,weatherlink.com 1.10,2013-06-18 12:57:00,
2013-06-18 09:12:00,60.1,53.0,29.99,SE,141,2.0,7.0,78,0.00,,,0.00,weatherlink.com 1.10,2013-06-18 13:12:00,
2013-06-18 09:27:00,61.5,53.0,29.99,NNE,31,2.0,6.0,74,0.00,,,0.00,weatherlink.com 1.10,2013-06-18 13:27:00,
2013-06-18 09:42:00,62.4,53.0,30.00,ESE,109,2.0,7.0,72,0.00,,,0.00,weatherlink.com 1.10,2013-06-18 13:42:00,
2013-06-18 09:57:00,63.0,53.0,30.00,SE,130,1.0,7.0,70,0.00,,,0.00,weatherlink.com 1.10,2013-06-18 13:57:00,
2013-06-18 10:12:00,63.4,54.0,30.00,North,11,6.0,7.0,71,0.00,,,0.00,weatherlink.com 1.10,2013-06-18 14:12:00,
2013-06-18 10:27:00,64.0,53.0,30.00,NNW,342,6.0,8.0,68,0.00,,,0.00,weatherlink.com 1.10,2013-06-18 14:27:00,
2013-06-18 10:42:00,64.5,53.0,30.00,ESE,109,7.0,10.0,66,0.00,,,0.00,weatherlink.com 1.10,2013-06-18 14:42:00,
2013-06-18 10:57:00,64.9,52.0,30.01,East,94,4.0,8.0,64,0.00,,,0.00,weatherlink.com 1.10,2013-06-18 14:57:00,
2013-06-18 11:12:00,65.7,53.0,30.01,NNE,31,4.0,9.0,63,0.00,,,0.00,weatherlink.com 1.10,2013-06-18 15:12:00,
2013-06-18 11:27:00,66.5,53.0,30.01,NNW,336,5.0,9.0,62,0.00,,,0.00,weatherlink.com 1.10,2013-06-18 15:27:00,
2013-06-18 11:42:00,66.7,54.0,30.00,West,280,1.0,8.0,63,0.00,,,0.00,weatherlink.com 1.10,2013-06-18 15:42:00,
2013-06-18 11:57:00,67.4,52.0,30.00,ESE,111,4.0,10.0,58,0.00,,,0.00,weatherlink.com 1.10,2013-06-18 15:57:00,
2013-06-18 12:12:00,67.7,53.0,30.00,East,91,3.0,10.0,60,0.00,,,0.00,weatherlink.com 1.10,2013-06-18 16:12:00,
2013-06-18 12:27:00,68.1,54.0,30.01,NNE,20,5.0,10.0,60,0.00,,,0.00,weatherlink.com 1.10,2013-06-18 16:27:00,
2013-06-18 12:42:00,68.2,52.0,30.00,NE,46,7.0,11.0,57,0.00,,,0.00,weatherlink.com 1.10,2013-06-18 16:42:00,
2013-06-18 12:57:00,68.2,51.0,30.00,NE,52,2.0,11.0,55,0.00,,,0.00,weatherlink.com 1.10,2013-06-18 16:57:00,
2013-06-18 13:12:00,68.4,50.0,30.00,ENE,78,9.0,13.0,53,0.00,,,0.00,weatherlink.com 1.10,2013-06-18 17:12:00,
2013-06-18 13:28:00,69.0,50.0,30.00,East,84,10.0,12.0,51,0.00,,,0.00,weatherlink.com 1.10,2013-06-18 17:28:00,
2013-06-18 13:43:00,69.3,49.0,30.00,East,89,2.0,12.0,48,0.00,,,0.00,weatherlink.com 1.10,2013-06-18 17:43:00,
2013-06-18 13:58:00,69.8,49.0,30.00,NW,316,2.0,9.0,47,0.00,,,0.00,weatherlink.com 1.10,2013-06-18 17:58:00,
2013-06-18 14:13:00,69.9,49.0,30.01,NE,37,1.0,9.0,48,0.00,,,0.00,weatherlink.com 1.10,2013-06-18 18:13:00,
2013-06-18 14:28:00,69.3,48.0,30.01,East,91,2.0,15.0,46,0.00,,,0.00,weatherlink.com 1.10,2013-06-18 18:28:00,
2013-06-18 14:43:00,70.8,51.0,30.01,NNW,347,2.0,6.0,50,0.00,,,0.00,weatherlink.com 1.10,2013-06-18 18:43:00,
2013-06-18 14:58:00,70.4,49.0,30.01,SE,134,6.0,9.0,47,0.00,,,0.00,weatherlink.com 1.10,2013-06-18 18:58:00,
2013-06-18 15:13:00,69.3,49.0,30.00,East,85,3.0,10.0,48,0.00,,,0.00,weatherlink.com 1.10,2013-06-18 19:13:00,
2013-06-18 15:28:00,70.0,50.0,30.00,NNW,328,2.0,15.0,49,0.00,,,0.00,weatherlink.com 1.10,2013-06-18 19:28:00,
2013-06-18 15:43:00,71.1,51.0,30.00,NE,44,2.0,5.0,49,0.00,,,0.00,weatherlink.com 1.10,2013-06-18 19:43:00,
2013-06-18 15:58:00,71.3,48.0,30.00,WNW,301,3.0,10.0,43,0.00,,,0.00,weatherlink.com 1.10,2013-06-18 19:58:00,
2013-06-18 16:13:00,70.5,47.0,30.01,North,6,3.0,12.0,44,0.00,,,0.00,weatherlink.com 1.10,2013-06-18 20:13:00,
2013-06-18 16:28:00,71.2,49.0,30.01,ESE,117,1.0,9.0,46,0.00,,,0.00,weatherlink.com 1.10,2013-06-18 20:28:00,
2013-06-18 16:43:00,70.8,45.0,30.01,ESE,105,3.0,10.0,40,0.00,,,0.00,weatherlink.com 1.10,2013-06-18 20:43:00,
2013-06-18 16:58:00,71.1,45.0,30.00,NNW,344,5.0,8.0,40,0.00,,,0.00,weatherlink.com 1.10,2013-06-18 20:58:00,
2013-06-18 17:13:00,70.8,46.0,30.00,East,91,5.0,9.0,42,0.00,,,0.00,weatherlink.com 1.10,2013-06-18 21:13:00,
2013-06-18 17:28:00,70.5,47.0,30.01,NNE,13,5.0,7.0,44,0.00,,,0.00,weatherlink.com 1.10,2013-06-18 21:28:00,
2013-06-18 17:44:00,70.4,45.0,30.01,East,79,5.0,8.0,41,0.00,,,0.00,weatherlink.com 1.10,2013-06-18 21:44:00,
2013-06-18 17:58:00,70.7,44.0,30.01,ENE,65,2.0,8.0,39,0.00,,,0.00,weatherlink.com 1.10,2013-06-18 21:58:00,
2013-06-18 18:13:00,70.5,46.0,30.01,SE,132,1.0,9.0,41,0.00,,,0.00,weatherlink.com 1.10,2013-06-18 22:13:00,
2013-06-18 18:28:00,70.1,45.0,30.01,NNE,18,1.0,10.0,41,0.00,,,0.00,weatherlink.com 1.10,2013-06-18 22:28:00,
2013-06-18 18:43:00,70.6,45.0,30.01,ESE,118,1.0,5.0,40,0.00,,,0.00,weatherlink.com 1.10,2013-06-18 22:43:00,
2013-06-18 18:58:00,69.4,45.0,30.01,ENE,70,4.0,6.0,41,0.00,,,0.00,weatherlink.com 1.10,2013-06-18 22:58:00,
2013-06-18 19:13:00,69.0,44.0,30.02,ENE,66,2.0,10.0,41,0.00,,,0.00,weatherlink.com 1.10,2013-06-18 23:13:00,
2013-06-18 19:28:00,68.6,44.0,30.03,SW,224,1.0,9.0,42,0.00,,,0.00,weatherlink.com 1.10,2013-06-18 23:28:00,
2013-06-18 19:43:00,68.5,43.0,30.03,NE,45,2.0,7.0,40,0.00,,,0.00,weatherlink.com 1.10,2013-06-18 23:43:00,
2013-06-18 19:58:00,67.7,43.0,30.03,East,96,1.0,5.0,41,0.00,,,0.00,weatherlink.com 1.10,2013-06-18 23:58:00,
2013-06-18 20:13:00,67.9,42.0,30.04,SE,143,0.0,4.0,39,0.00,,,0.00,weatherlink.com 1.10,2013-06-19 00:13:00,
2013-06-18 20:28:00,67.0,42.0,30.04,NW,317,0.0,3.0,41,0.00,,,0.00,weatherlink.com 1.10,2013-06-19 00:28:00,
2013-06-18 20:43:00,66.2,43.0,30.04,NNE,32,0.0,2.0,43,0.00,,,0.00,weatherlink.com 1.10,2013-06-19 00:43:00,
2013-06-18 20:58:00,64.9,43.0,30.05,NNE,30,0.0,1.0,45,0.00,,,0.00,weatherlink.com 1.10,2013-06-19 00:58:00,
2013-06-18 21:13:00,61.8,43.0,30.05,NE,53,0.0,3.0,51,0.00,,,0.00,weatherlink.com 1.10,2013-06-19 01:13:00,
2013-06-18 21:28:00,59.0,44.0,30.05,NE,54,0.0,1.0,57,0.00,,,0.00,weatherlink.com 1.10,2013-06-19 01:28:00,
2013-06-18 21:58:00,56.1,44.0,30.05,NE,53,0.0,1.0,64,0.00,,,0.00,weatherlink.com 1.10,2013-06-19 01:58:00,
2013-06-18 22:13:00,55.7,44.0,30.06,ENE,66,0.0,2.0,64,0.00,,,0.00,weatherlink.com 1.10,2013-06-19 02:13:00,
2013-06-18 22:28:00,54.9,43.0,30.06,ENE,66,0.0,1.0,65,0.00,,,0.00,weatherlink.com 1.10,2013-06-19 02:28:00,
2013-06-18 22:43:00,54.4,43.0,30.06,ENE,66,0.0,1.0,66,0.00,,,0.00,weatherlink.com 1.10,2013-06-19 02:43:00,
2013-06-18 22:58:00,53.6,43.0,30.06,ESE,107,0.0,1.0,67,0.00,,,0.00,weatherlink.com 1.10,2013-06-19 02:58:00,
2013-06-18 23:13:00,53.4,43.0,30.06,NNE,33,1.0,2.0,67,0.00,,,0.00,weatherlink.com 1.10,2013-06-19 03:13:00,
2013-06-18 23:28:00,52.8,42.0,30.06,ESE,104,0.0,1.0,68,0.00,,,0.00,weatherlink.com 1.10,2013-06-19 03:28:00,
2013-06-18 23:43:00,51.4,43.0,30.06,ESE,104,0.0,0.0,72,0.00,,,0.00,weatherlink.com 1.10,2013-06-19 03:43:00,
2013-06-18 23:58:00,49.6,43.0,30.07,ESE,104,0.0,0.0,77,0.00,,,0.00,weatherlink.com 1.10,2013-06-19 03:58:00,